Impacts TAF Board
For situational awareness. Not to be used for flight planning purposes.
IDs:

KTPA - Tampa Intl Arpt, FL, US

Issued at 1137 UTC 30 Mar 2020
Updated at 1250 UTC 30 Mar 2020
Potential Impact None Slight Moderate High
Time1153Z 30/13Z 30/14Z 30/15Z 30/16Z 30/17Z 30/18Z 30/19Z 30/20Z 30/21Z 30/22Z 30/23Z 31/00Z 31/01Z>>
Type OBS PRVL PRVL PRVL PRVL PRVL PRVL PRVL PRVL PRVL PRVL PRVL PRVL PRVL
VIS 10 >6 >6 >6 >6 >6 >6 >6 >6 >6 >6 >6 >6 >6
CIG 35 35 35 35 -- -- -- -- -- -- -- -- -- --
Cover BKN BKN BKN BKN SCT SCT SCT SCT SCT SCT SCT SCT SCT SCT
FltCat VFR VFR VFR VFR VFR VFR VFR VFR VFR VFR VFR VFR VFR VFR
WX -- -- -- -- -- -- -- -- -- -- -- -- -- --
WDir 70 60 60 60 240 240 240 240 240 240 240 240 240 240
WSpd 4 4 4 4 7 7 7 7 7 7 7 7 7 7
WGst -- -- -- -- -- -- -- -- -- -- -- -- -- --
Raw TAF
KTPA 301137Z 3012/3118 06004KT P6SM BKN035
  FM301600 24007KT P6SM SCT035 SCT250
  FM310200 VRB03KT P6SM SCT250


Raw METAR
KTPA 301153Z 07004KT 10SM BKN035 22/19 A3016 RMK AO2 SLP211 T02220189 10239 20217 51017
KTPA 301053Z VRB03KT 10SM BKN036 22/19 A3014 RMK AO2 SLP206 T02220189
KTPA 300953Z 00000KT 10SM FEW035 23/19 A3013 RMK AO2 SLP201 T02280189

METAR Board
Radar Display
Forecast Discussion
For situational awareness. Not to be used for flight planning purposes.